Terminal Aerodrome Forecast
Issued by NWS

Current Version | Previous Version | Text Only | Print | Product List | Glossary On
Versions: 1 2 3 4 5 6 7 8 9 10 11 12 13 14 15 16 17 18 19 20
000
FTUS43 KAPX 062320
TAFPLN
TAF
KPLN 062320Z 0700/0724 VRB03KT P6SM SCT060 BKN120
     FM070600 VRB03KT 3SM BR SCT002 BKN200
     FM071400 17008KT P6SM BKN250=

USA.gov is the U.S. government's official web portal to all federal, state and local government web resources and services.